createdAt,value
2022-11-10T00:00:30.331Z,100893.31
2022-11-10T00:03:15.743Z,100898.72
2022-11-10T00:06:05.713Z,100895.38
2022-11-10T00:08:50.940Z,100896.44
2022-11-10T00:11:36.584Z,100904.03
2022-11-10T00:14:40.284Z,100905.47
2022-11-10T00:17:25.550Z,100897.72
2022-11-10T00:20:11.776Z,100909.25
2022-11-10T00:22:57.307Z,100905.38
2022-11-10T00:25:42.714Z,100906.69
2022-11-10T00:28:30.871Z,100909.38
2022-11-10T00:31:16.314Z,100905.66
2022-11-10T00:34:01.661Z,100904.66
2022-11-10T00:36:46.976Z,100912.00
2022-11-10T00:39:35.278Z,100907.59
2022-11-10T00:42:20.803Z,100913.00
2022-11-10T00:45:07.495Z,100916.81
2022-11-10T00:47:59.459Z,100921.25
2022-11-10T00:50:46.756Z,100923.06
2022-11-10T00:53:32.233Z,100936.28
2022-11-10T00:56:17.828Z,100931.06
2022-11-10T00:59:03.204Z,100933.31
2022-11-10T01:01:48.244Z,100951.00
2022-11-10T01:04:33.652Z,100952.31
2022-11-10T01:07:18.977Z,100962.03
2022-11-10T01:10:05.221Z,100966.25
2022-11-10T01:12:50.583Z,100976.31
2022-11-10T01:15:40.012Z,100976.34
2022-11-10T01:18:25.432Z,100982.91
2022-11-10T01:21:11.196Z,100987.56
2022-11-10T01:23:56.999Z,100992.38
2022-11-10T01:26:42.291Z,100998.25
2022-11-10T01:29:27.602Z,101014.66
2022-11-10T01:32:12.671Z,101016.53
2022-11-10T01:34:57.673Z,101010.66
2022-11-10T01:37:43.329Z,101013.03
2022-11-10T01:40:29.790Z,101017.97
2022-11-10T01:43:15.826Z,101019.13
2022-11-10T01:46:12.419Z,101017.44
2022-11-10T01:49:02.492Z,101012.44
2022-11-10T01:52:01.300Z,101014.41
2022-11-10T01:54:48.740Z,101017.72
2022-11-10T01:57:35.152Z,101027.09
2022-11-10T02:00:20.925Z,101022.81
2022-11-10T02:03:26.057Z,101028.31
2022-11-10T02:06:12.983Z,101028.69
2022-11-10T02:08:59.724Z,101031.06
2022-11-10T02:11:47.493Z,101031.53
2022-11-10T02:14:33.161Z,101035.16
2022-11-10T02:17:18.683Z,101033.50
2022-11-10T02:20:09.940Z,101029.19
2022-11-10T02:22:55.370Z,101031.63
2022-11-10T02:25:40.856Z,101039.03
2022-11-10T02:28:27.303Z,101039.50
2022-11-10T02:31:12.836Z,101045.47
2022-11-10T02:33:58.170Z,101048.03
2022-11-10T02:36:43.808Z,101052.84
2022-11-10T02:39:28.909Z,101050.72
2022-11-10T02:42:15.309Z,101057.16
2022-11-10T02:45:00.344Z,101060.75
2022-11-10T02:47:45.841Z,101053.81
2022-11-10T02:50:30.801Z,101056.88
2022-11-10T02:53:15.886Z,101059.56
2022-11-10T02:56:00.932Z,101054.28
2022-11-10T02:58:46.128Z,101065.00
2022-11-10T03:01:31.661Z,101063.56
2022-11-10T03:04:16.896Z,101070.25
2022-11-10T03:07:02.175Z,101075.25
2022-11-10T03:09:47.246Z,101078.66
2022-11-10T03:12:32.856Z,101058.94
2022-11-10T03:15:18.112Z,101068.94
2022-11-10T03:18:04.829Z,101068.78
2022-11-10T03:20:50.215Z,101082.09
2022-11-10T03:23:36.220Z,101078.59
2022-11-10T03:26:22.554Z,101079.19
2022-11-10T03:29:08.129Z,101080.53
2022-11-10T03:31:53.354Z,101086.88
2022-11-10T03:34:38.745Z,101095.19
2022-11-10T03:37:24.017Z,101105.38
2022-11-10T03:40:09.618Z,101104.22
2022-11-10T03:42:55.214Z,101109.31
2022-11-10T03:45:42.422Z,101108.53
2022-11-10T03:48:27.803Z,101111.91
2022-11-10T03:51:13.102Z,101125.81
2022-11-10T03:54:09.653Z,101124.88
2022-11-10T03:56:59.082Z,101127.03
2022-11-10T03:59:47.613Z,101132.16
2022-11-10T04:02:59.997Z,101145.31
2022-11-10T04:06:03.616Z,101148.88
2022-11-10T04:09:00.795Z,101155.94
2022-11-10T04:12:04.431Z,101160.88
2022-11-10T04:15:08.354Z,101166.75
2022-11-10T04:17:53.807Z,101169.97
2022-11-10T04:20:39.249Z,101168.38
2022-11-10T04:23:27.235Z,101173.03
2022-11-10T04:26:29.723Z,101182.97
2022-11-10T04:29:19.777Z,101189.25
2022-11-10T04:32:05.276Z,101198.19
2022-11-10T04:34:50.923Z,101200.34
2022-11-10T04:37:36.628Z,101197.84
2022-11-10T04:40:21.886Z,101193.53
2022-11-10T04:43:07.299Z,101198.81
2022-11-10T04:45:52.444Z,101196.41
2022-11-10T04:48:37.839Z,101198.44
2022-11-10T04:51:26.029Z,101204.19
2022-11-10T04:54:11.792Z,101203.50
2022-11-10T04:56:57.355Z,101213.81
2022-11-10T04:59:42.607Z,101217.47
2022-11-10T05:02:27.964Z,101207.06
2022-11-10T05:05:13.416Z,101206.44
2022-11-10T05:07:59.073Z,101198.28
2022-11-10T05:10:44.447Z,101202.06
2022-11-10T05:13:30.559Z,101207.88
2022-11-10T05:16:15.940Z,101216.78
2022-11-10T05:19:01.683Z,101221.78
2022-11-10T05:21:46.757Z,101221.44
2022-11-10T05:24:32.365Z,101217.91
2022-11-10T05:27:17.717Z,101218.16
2022-11-10T05:30:03.619Z,101230.88
2022-11-10T05:32:48.736Z,101240.66
2022-11-10T05:35:34.875Z,101247.69
2022-11-10T05:38:20.028Z,101253.28
2022-11-10T05:41:05.364Z,101253.66
2022-11-10T05:43:50.840Z,101261.06
2022-11-10T05:46:36.137Z,101269.56
2022-11-10T05:49:21.544Z,101291.50
2022-11-10T05:52:08.186Z,101289.19
2022-11-10T05:54:55.360Z,101291.66
2022-11-10T05:57:51.091Z,101304.25
2022-11-10T06:00:37.515Z,101311.13
2022-11-10T06:03:23.366Z,101309.50
2022-11-10T06:06:09.324Z,101320.41
2022-11-10T06:08:56.381Z,101323.09
2022-11-10T06:11:41.971Z,101348.16
2022-11-10T06:14:27.428Z,101336.88
2022-11-10T06:17:12.560Z,101347.41
2022-11-10T06:19:57.655Z,101350.84
2022-11-10T06:22:43.567Z,101347.75
2022-11-10T06:25:34.520Z,101345.94
2022-11-10T06:28:19.920Z,101347.84
2022-11-10T06:31:05.425Z,101353.94
2022-11-10T06:33:50.851Z,101370.28
2022-11-10T06:36:36.126Z,101382.00
2022-11-10T06:39:21.552Z,101386.47
2022-11-10T06:42:07.052Z,101392.25
2022-11-10T06:44:52.056Z,101396.22
2022-11-10T06:47:37.600Z,101400.00
2022-11-10T06:50:23.130Z,101408.50
2022-11-10T06:53:09.626Z,101415.50
2022-11-10T06:55:54.860Z,101424.19
2022-11-10T06:58:40.132Z,101432.31
2022-11-10T07:01:26.660Z,101439.03
2022-11-10T07:04:21.049Z,101440.72
2022-11-10T07:07:06.643Z,101444.25
2022-11-10T07:09:52.150Z,101451.09
2022-11-10T07:12:37.311Z,101453.75
2022-11-10T07:15:22.485Z,101458.31
2022-11-10T07:18:09.063Z,101466.38
2022-11-10T07:20:54.473Z,101460.34
2022-11-10T07:23:39.721Z,101466.50
2022-11-10T07:26:25.663Z,101469.81
2022-11-10T07:29:10.849Z,101471.44
2022-11-10T07:31:56.481Z,101474.34
2022-11-10T07:34:42.239Z,101479.44
2022-11-10T07:37:29.709Z,101489.41
2022-11-10T07:40:15.372Z,101489.63
2022-11-10T07:43:01.545Z,101488.66
2022-11-10T07:45:46.609Z,101498.13
2022-11-10T07:48:32.004Z,101503.44
2022-11-10T07:51:17.313Z,101513.00
2022-11-10T07:54:02.913Z,101504.44
2022-11-10T07:56:48.471Z,101513.22
2022-11-10T07:59:33.540Z,101520.28
2022-11-10T08:02:18.747Z,101517.22
2022-11-10T08:05:04.843Z,101517.84
2022-11-10T08:07:49.963Z,101529.97
2022-11-10T08:10:35.987Z,101544.13
2022-11-10T08:13:21.779Z,101538.31
2022-11-10T08:16:07.524Z,101545.94
2022-11-10T08:18:52.885Z,101541.59
2022-11-10T08:21:38.527Z,101555.66
2022-11-10T08:24:24.085Z,101544.16
2022-11-10T08:27:09.546Z,101554.47
2022-11-10T08:29:54.778Z,101563.78
2022-11-10T08:32:40.105Z,101562.53
2022-11-10T08:35:27.185Z,101557.47
2022-11-10T08:38:16.692Z,101574.59
2022-11-10T08:41:02.060Z,101584.94
2022-11-10T08:43:47.781Z,101570.19
2022-11-10T08:46:33.133Z,101571.13
2022-11-10T08:49:18.605Z,101572.88
2022-11-10T08:52:04.261Z,101581.00
2022-11-10T08:54:49.646Z,101575.72
2022-11-10T08:57:35.045Z,101583.66
2022-11-10T09:00:20.282Z,101584.97
2022-11-10T09:03:07.325Z,101590.91
2022-11-10T09:05:57.970Z,101597.94
2022-11-10T09:08:43.989Z,101591.19
2022-11-10T09:11:30.773Z,101598.25
2022-11-10T09:14:15.861Z,101600.06
2022-11-10T09:17:01.144Z,101603.13
2022-11-10T09:19:46.345Z,101617.06
2022-11-10T09:22:31.938Z,101624.63
2022-11-10T09:25:17.152Z,101622.31
2022-11-10T09:28:04.089Z,101636.59
2022-11-10T09:30:51.683Z,101634.13
2022-11-10T09:33:36.924Z,101649.88
2022-11-10T09:36:22.606Z,101639.69
2022-11-10T09:39:08.067Z,101641.53
2022-11-10T09:41:53.541Z,101641.03
2022-11-10T09:44:47.317Z,101649.31
2022-11-10T09:47:58.233Z,101649.34
2022-11-10T09:50:50.519Z,101648.13
2022-11-10T09:53:45.138Z,101643.22
2022-11-10T09:56:33.318Z,101654.88
2022-11-10T09:59:33.286Z,101650.69
2022-11-10T10:02:38.148Z,101653.09
2022-11-10T10:06:02.507Z,101652.09
2022-11-10T10:09:15.816Z,101653.47
2022-11-10T10:12:24.409Z,101651.53
2022-11-10T10:16:04.024Z,101652.31
2022-11-10T10:19:11.373Z,101657.13
2022-11-10T10:22:25.308Z,101666.16
2022-11-10T10:25:20.789Z,101661.16
2022-11-10T10:28:21.014Z,101660.00
2022-11-10T10:31:26.558Z,101662.41
2022-11-10T10:34:15.900Z,101662.03
2022-11-10T10:37:01.798Z,101661.09
2022-11-10T10:39:50.184Z,101661.00
2022-11-10T10:42:37.549Z,101657.69
2022-11-10T10:45:25.494Z,101670.47
2022-11-10T10:48:29.192Z,101663.78
2022-11-10T10:51:31.321Z,101647.53
2022-11-10T10:54:28.677Z,101660.88
2022-11-10T10:57:29.168Z,101653.84
2022-11-10T11:00:17.732Z,101658.06
2022-11-10T11:03:07.726Z,101651.97
2022-11-10T11:06:19.950Z,101652.44
2022-11-10T11:09:14.975Z,101651.41
2022-11-10T11:12:06.583Z,101655.53
2022-11-10T11:14:53.836Z,101655.66
2022-11-10T11:17:40.313Z,101640.59
2022-11-10T11:20:36.337Z,101640.94
2022-11-10T11:24:04.129Z,101649.53
2022-11-10T11:27:10.190Z,101648.91
2022-11-10T11:30:05.946Z,101649.72
2022-11-10T11:32:50.970Z,101654.44
2022-11-10T11:36:01.655Z,101650.81
2022-11-10T11:38:55.911Z,101656.31
2022-11-10T11:42:04.415Z,101647.53
2022-11-10T11:44:58.704Z,101652.81
2022-11-10T11:47:49.989Z,101657.63
2022-11-10T11:50:51.032Z,101666.91
2022-11-10T11:54:08.917Z,101652.94
2022-11-10T11:57:03.840Z,101671.97
2022-11-10T12:00:14.065Z,101668.09
2022-11-10T12:03:16.689Z,101675.28
2022-11-10T12:06:27.148Z,101672.56
2022-11-10T12:09:27.655Z,101673.75
2022-11-10T12:12:44.036Z,101674.56
2022-11-10T12:15:53.283Z,101672.22
2022-11-10T12:18:49.465Z,101664.78
2022-11-10T12:22:06.572Z,101669.66
2022-11-10T12:25:08.896Z,101666.81
2022-11-10T12:28:03.262Z,101668.94
2022-11-10T12:30:56.396Z,101671.53
2022-11-10T12:33:49.889Z,101663.38
2022-11-10T12:36:35.471Z,101662.13
2022-11-10T12:39:25.080Z,101660.91
2022-11-10T12:42:18.835Z,101665.50
2022-11-10T12:45:17.533Z,101667.53
2022-11-10T12:48:04.129Z,101675.28
2022-11-10T12:50:51.887Z,101672.19
2022-11-10T12:53:39.945Z,101672.88
2022-11-10T12:56:35.653Z,101671.13
2022-11-10T12:59:20.816Z,101680.44
2022-11-10T13:02:23.905Z,101686.09
2022-11-10T13:05:15.196Z,101684.56
2022-11-10T13:08:27.402Z,101683.84
2022-11-10T13:11:12.702Z,101688.44
2022-11-10T13:14:00.492Z,101681.63
2022-11-10T13:16:56.553Z,101687.38
2022-11-10T13:19:50.449Z,101691.13
2022-11-10T13:22:40.878Z,101699.75
2022-11-10T13:25:38.437Z,101689.13
2022-11-10T13:28:49.076Z,101692.69
2022-11-10T13:31:34.171Z,101689.13
2022-11-10T13:34:19.795Z,101696.63
2022-11-10T13:37:29.934Z,101696.22
2022-11-10T13:40:23.978Z,101701.66
2022-11-10T13:43:19.661Z,101703.34
2022-11-10T13:46:05.594Z,101694.97
2022-11-10T13:49:19.090Z,101698.38
2022-11-10T13:52:13.790Z,101694.97
2022-11-10T13:54:59.082Z,101703.50
2022-11-10T13:58:00.107Z,101705.06
2022-11-10T14:01:12.344Z,101716.56
2022-11-10T14:04:02.187Z,101708.84
2022-11-10T14:06:54.947Z,101713.41
2022-11-10T14:09:47.976Z,101715.47
2022-11-10T14:12:46.420Z,101715.41
2022-11-10T14:15:40.550Z,101711.31
2022-11-10T14:18:37.073Z,101707.03
2022-11-10T14:21:46.963Z,101711.41
2022-11-10T14:24:39.368Z,101723.56
2022-11-10T14:27:28.264Z,101714.59
2022-11-10T14:30:27.905Z,101723.69
2022-11-10T14:33:14.771Z,101719.16
2022-11-10T14:36:04.985Z,101720.88
2022-11-10T14:38:52.624Z,101730.59
2022-11-10T14:41:46.727Z,101726.28
2022-11-10T14:44:36.554Z,101731.94
2022-11-10T14:47:32.985Z,101735.91
2022-11-10T14:50:24.856Z,101733.56
2022-11-10T14:53:48.735Z,101733.44
2022-11-10T14:56:36.683Z,101731.47
2022-11-10T14:59:24.129Z,101734.38
2022-11-10T15:02:15.631Z,101746.75
2022-11-10T15:05:02.610Z,101744.75
2022-11-10T15:07:52.673Z,101749.22
2022-11-10T15:10:39.676Z,101748.06
2022-11-10T15:13:28.222Z,101749.22
2022-11-10T15:16:34.575Z,101763.63
2022-11-10T15:19:22.112Z,101760.78
2022-11-10T15:22:19.900Z,101772.06
2022-11-10T15:25:15.118Z,101773.72
2022-11-10T15:28:04.122Z,101774.28
2022-11-10T15:30:59.235Z,101766.50
2022-11-10T15:33:47.687Z,101759.84
2022-11-10T15:36:40.762Z,101763.84
2022-11-10T15:39:27.235Z,101758.66
2022-11-10T15:42:21.253Z,101764.81
2022-11-10T15:45:07.176Z,101757.25
2022-11-10T15:47:52.595Z,101762.44
2022-11-10T15:50:38.218Z,101762.84
2022-11-10T15:53:35.754Z,101763.31
2022-11-10T15:56:24.087Z,101768.16
2022-11-10T15:59:10.882Z,101762.34
2022-11-10T16:01:56.581Z,101767.50
2022-11-10T16:04:42.846Z,101771.97
2022-11-10T16:07:30.359Z,101785.81
2022-11-10T16:10:15.540Z,101786.38
2022-11-10T16:13:00.734Z,101780.94
2022-11-10T16:15:46.644Z,101782.28
2022-11-10T16:18:32.124Z,101785.53
2022-11-10T16:21:22.772Z,101791.09
2022-11-10T16:24:08.547Z,101788.97
2022-11-10T16:26:53.971Z,101787.75
2022-11-10T16:29:40.138Z,101791.56
2022-11-10T16:32:25.310Z,101791.56
2022-11-10T16:35:15.069Z,101791.34
2022-11-10T16:38:00.276Z,101796.22
2022-11-10T16:40:54.922Z,101794.44
2022-11-10T16:43:41.697Z,101802.88
2022-11-10T16:46:29.849Z,101809.09
2022-11-10T16:49:23.293Z,101811.44
2022-11-10T16:52:16.842Z,101810.31
2022-11-10T16:55:02.005Z,101820.50
2022-11-10T16:57:48.854Z,101825.59
2022-11-10T17:00:37.012Z,101818.94
2022-11-10T17:03:33.541Z,101825.59
2022-11-10T17:06:21.447Z,101827.69
2022-11-10T17:09:21.392Z,101832.38
2022-11-10T17:12:06.604Z,101836.25
2022-11-10T17:14:52.468Z,101840.47
2022-11-10T17:17:39.865Z,101838.06
2022-11-10T17:20:32.058Z,101840.91
2022-11-10T17:23:21.782Z,101845.84
2022-11-10T17:26:12.338Z,101842.53
2022-11-10T17:28:57.800Z,101844.13
2022-11-10T17:31:44.218Z,101841.22
2022-11-10T17:34:29.355Z,101850.13
2022-11-10T17:37:14.602Z,101858.03
2022-11-10T17:40:07.253Z,101862.81
2022-11-10T17:42:52.672Z,101867.66
2022-11-10T17:45:38.148Z,101868.47
2022-11-10T17:48:23.497Z,101865.63
2022-11-10T17:51:17.977Z,101870.56
2022-11-10T17:54:06.722Z,101867.28
2022-11-10T17:56:51.752Z,101878.53
2022-11-10T17:59:36.761Z,101875.88
2022-11-10T18:02:22.346Z,101890.59
2022-11-10T18:05:10.951Z,101879.81
2022-11-10T18:07:56.227Z,101865.13
2022-11-10T18:10:52.327Z,101872.69
2022-11-10T18:13:38.999Z,101876.59
2022-11-10T18:16:24.400Z,101877.56
2022-11-10T18:19:11.147Z,101883.19
2022-11-10T18:21:56.404Z,101879.94
2022-11-10T18:24:42.450Z,101883.09
2022-11-10T18:27:28.513Z,101889.53
2022-11-10T18:30:14.529Z,101889.97
2022-11-10T18:33:04.814Z,101884.13
2022-11-10T18:35:49.892Z,101884.63
2022-11-10T18:38:35.884Z,101884.16
2022-11-10T18:41:40.096Z,101887.75
2022-11-10T18:44:25.261Z,101882.41
2022-11-10T18:47:12.890Z,101892.66
2022-11-10T18:49:58.078Z,101890.25
2022-11-10T18:52:43.654Z,101885.03
2022-11-10T18:55:29.145Z,101883.53
2022-11-10T18:58:14.291Z,101895.56
2022-11-10T19:01:07.671Z,101896.28
2022-11-10T19:03:53.372Z,101895.19
2022-11-10T19:06:39.574Z,101898.56
2022-11-10T19:09:24.899Z,101895.72
2022-11-10T19:12:11.430Z,101901.81
2022-11-10T19:14:56.753Z,101899.59
2022-11-10T19:17:41.777Z,101910.84
2022-11-10T19:20:27.321Z,101905.53
2022-11-10T19:23:12.621Z,101897.91
2022-11-10T19:26:04.712Z,101902.63
2022-11-10T19:28:50.343Z,101907.41
2022-11-10T19:31:35.933Z,101915.19
2022-11-10T19:34:21.336Z,101917.13
2022-11-10T19:37:07.193Z,101926.84
2022-11-10T19:39:52.155Z,101931.69
2022-11-10T19:42:37.596Z,101927.19
2022-11-10T19:45:23.311Z,101930.72
2022-11-10T19:48:08.733Z,101940.25
2022-11-10T19:50:55.436Z,101930.53
2022-11-10T19:53:42.092Z,101942.72
2022-11-10T19:56:31.648Z,101952.72
2022-11-10T19:59:19.318Z,101962.28
2022-11-10T20:02:05.281Z,101963.69
2022-11-10T20:05:09.619Z,101962.66
2022-11-10T20:08:13.359Z,101974.22
2022-11-10T20:11:01.059Z,101997.06
2022-11-10T20:13:51.958Z,102001.63
2022-11-10T20:16:39.591Z,101996.25
2022-11-10T20:19:24.611Z,101989.41
2022-11-10T20:22:12.548Z,101997.50
2022-11-10T20:24:58.192Z,101990.66
2022-11-10T20:27:43.859Z,101979.88
2022-11-10T20:30:29.908Z,101973.88
2022-11-10T20:33:14.863Z,101986.28
2022-11-10T20:36:15.956Z,101973.47
2022-11-10T20:39:04.642Z,101974.31
2022-11-10T20:41:52.718Z,101966.66
2022-11-10T20:44:38.078Z,101966.22
2022-11-10T20:47:23.630Z,101965.00
2022-11-10T20:50:14.811Z,101969.53
2022-11-10T20:53:00.998Z,101976.75
2022-11-10T20:55:54.155Z,101970.16
2022-11-10T20:58:39.922Z,101965.78
2022-11-10T21:01:25.534Z,101970.34
2022-11-10T21:04:11.080Z,101976.78
2022-11-10T21:06:56.563Z,101974.31
2022-11-10T21:09:41.576Z,101974.94
2022-11-10T21:12:45.303Z,101974.53
2022-11-10T21:15:30.818Z,101980.09
2022-11-10T21:18:16.576Z,101977.22
2022-11-10T21:21:05.315Z,101982.59
2022-11-10T21:23:56.981Z,101975.34
2022-11-10T21:26:42.720Z,101968.94
2022-11-10T21:29:27.718Z,101973.50
2022-11-10T21:32:13.056Z,101983.63
2022-11-10T21:34:58.199Z,101979.69
2022-11-10T21:37:43.923Z,101981.34
2022-11-10T21:40:29.013Z,101984.84
2022-11-10T21:43:14.479Z,101983.41
2022-11-10T21:46:03.868Z,101981.75
2022-11-10T21:48:53.520Z,101973.69
2022-11-10T21:51:39.401Z,101968.31
2022-11-10T21:54:24.509Z,101971.00
2022-11-10T21:57:10.199Z,101965.63
2022-11-10T21:59:55.289Z,101959.63
2022-11-10T22:02:40.433Z,101965.59
2022-11-10T22:05:25.714Z,101968.09
2022-11-10T22:08:12.216Z,101965.59
2022-11-10T22:11:16.006Z,101966.41
2022-11-10T22:14:19.991Z,101964.78
2022-11-10T22:17:33.894Z,101948.41
2022-11-10T22:20:19.433Z,101957.31
2022-11-10T22:23:06.002Z,101954.03
2022-11-10T22:25:51.017Z,101962.50
2022-11-10T22:28:36.259Z,101961.25
2022-11-10T22:31:21.611Z,101965.59
2022-11-10T22:34:07.067Z,101968.91
2022-11-10T22:36:54.572Z,101973.47
2022-11-10T22:39:58.495Z,101978.00
2022-11-10T22:43:03.249Z,101976.56
2022-11-10T22:45:49.152Z,101978.78
2022-11-10T22:48:34.398Z,101979.25
2022-11-10T22:51:20.001Z,101986.91
2022-11-10T22:54:09.335Z,101986.72
2022-11-10T22:56:55.183Z,101985.63
2022-11-10T22:59:40.772Z,101972.59
2022-11-10T23:02:25.836Z,101975.09
2022-11-10T23:05:10.978Z,101978.63
2022-11-10T23:07:56.337Z,101976.31
2022-11-10T23:10:41.669Z,101973.25
2022-11-10T23:13:27.837Z,101973.44
2022-11-10T23:16:15.458Z,101966.38
2022-11-10T23:19:01.424Z,101962.25
2022-11-10T23:21:46.919Z,101961.66
2022-11-10T23:24:32.213Z,101966.38
2022-11-10T23:27:19.140Z,101974.25
2022-11-10T23:30:04.667Z,101968.44
2022-11-10T23:32:49.805Z,101974.66
2022-11-10T23:35:35.667Z,101968.66
2022-11-10T23:38:21.143Z,101975.09
2022-11-10T23:41:09.695Z,101971.75
2022-11-10T23:43:55.282Z,101973.41
2022-11-10T23:46:40.533Z,101969.06
2022-11-10T23:49:27.323Z,101979.00
2022-11-10T23:52:12.581Z,101976.94
2022-11-10T23:54:57.796Z,101987.88
2022-11-10T23:57:46.320Z,101986.63
